sensor_id;sensor_type;location;lat;lon;timestamp;pressure;altitude;pressure_sealevel;temperature;humidity
45441;BME280;31189;38.790;-77.084;2024-03-02T00:00:24;103012.16;;;12.11;37.54
45441;BME280;31189;38.790;-77.084;2024-03-02T00:02:50;103009.02;;;11.65;38.77
45441;BME280;31189;38.790;-77.084;2024-03-02T00:05:16;103002.76;;;12.36;37.68
45441;BME280;31189;38.790;-77.084;2024-03-02T00:07:42;103001.12;;;12.50;38.52
45441;BME280;31189;38.790;-77.084;2024-03-02T00:10:09;102999.67;;;12.34;39.26
45441;BME280;31189;38.790;-77.084;2024-03-02T00:12:32;102997.53;;;12.22;38.03
45441;BME280;31189;38.790;-77.084;2024-03-02T00:14:57;102993.74;;;10.50;40.45
45441;BME280;31189;38.790;-77.084;2024-03-02T00:17:25;102992.57;;;11.86;38.54
45441;BME280;31189;38.790;-77.084;2024-03-02T00:19:49;102989.38;;;9.79;40.76
45441;BME280;31189;38.790;-77.084;2024-03-02T00:22:14;102992.67;;;12.51;38.43
45441;BME280;31189;38.790;-77.084;2024-03-02T00:24:40;102991.34;;;12.33;39.13
45441;BME280;31189;38.790;-77.084;2024-03-02T00:27:07;102987.77;;;12.82;38.83
45441;BME280;31189;38.790;-77.084;2024-03-02T00:29:31;102983.59;;;11.52;38.45
45441;BME280;31189;38.790;-77.084;2024-03-02T00:31:57;102984.37;;;11.75;39.05
45441;BME280;31189;38.790;-77.084;2024-03-02T00:34:23;102985.66;;;12.17;38.81
45441;BME280;31189;38.790;-77.084;2024-03-02T00:36:49;102985.30;;;12.53;37.61
45441;BME280;31189;38.790;-77.084;2024-03-02T00:39:16;102983.60;;;12.85;36.64
45441;BME280;31189;38.790;-77.084;2024-03-02T00:41:42;102982.19;;;12.46;37.34
45441;BME280;31189;38.790;-77.084;2024-03-02T00:44:06;102973.15;;;12.68;36.83
45441;BME280;31189;38.790;-77.084;2024-03-02T00:46:34;102973.95;;;11.73;37.87
45441;BME280;31189;38.790;-77.084;2024-03-02T00:48:58;102975.42;;;11.89;37.68
45441;BME280;31189;38.790;-77.084;2024-03-02T00:51:24;102973.27;;;12.26;37.53
45441;BME280;31189;38.790;-77.084;2024-03-02T00:53:48;102973.06;;;11.45;38.51
45441;BME280;31189;38.790;-77.084;2024-03-02T00:56:13;102970.72;;;10.19;40.07
45441;BME280;31189;38.790;-77.084;2024-03-02T00:58:39;102973.85;;;12.34;37.59
45441;BME280;31189;38.790;-77.084;2024-03-02T01:01:05;102974.80;;;12.00;37.68
45441;BME280;31189;38.790;-77.084;2024-03-02T01:03:31;102973.01;;;11.51;38.21
45441;BME280;31189;38.790;-77.084;2024-03-02T01:05:56;102974.11;;;11.65;37.77
45441;BME280;31189;38.790;-77.084;2024-03-02T01:08:22;102972.18;;;12.00;37.39
45441;BME280;31189;38.790;-77.084;2024-03-02T01:10:47;102967.81;;;11.09;38.48
45441;BME280;31189;38.790;-77.084;2024-03-02T01:13:13;102967.40;;;10.91;38.66
45441;BME280;31189;38.790;-77.084;2024-03-02T01:15:39;102964.87;;;11.49;37.88
45441;BME280;31189;38.790;-77.084;2024-03-02T01:18:05;102963.79;;;10.39;39.21
45441;BME280;31189;38.790;-77.084;2024-03-02T01:20:30;102964.27;;;11.15;38.23
45441;BME280;31189;38.790;-77.084;2024-03-02T01:22:56;102958.89;;;11.85;37.65
45441;BME280;31189;38.790;-77.084;2024-03-02T01:25:21;102957.94;;;12.00;37.49
45441;BME280;31189;38.790;-77.084;2024-03-02T01:27:47;102959.64;;;12.17;37.07
45441;BME280;31189;38.790;-77.084;2024-03-02T01:30:13;102959.89;;;12.23;37.34
45441;BME280;31189;38.790;-77.084;2024-03-02T01:32:39;102961.86;;;11.95;38.35
45441;BME280;31189;38.790;-77.084;2024-03-02T01:35:04;102961.73;;;11.61;38.66
45441;BME280;31189;38.790;-77.084;2024-03-02T01:37:30;102963.30;;;11.94;39.29
45441;BME280;31189;38.790;-77.084;2024-03-02T01:39:55;102962.41;;;11.61;39.63
45441;BME280;31189;38.790;-77.084;2024-03-02T01:42:21;102957.34;;;10.54;43.21
45441;BME280;31189;38.790;-77.084;2024-03-02T01:44:47;102955.69;;;11.85;41.13
45441;BME280;31189;38.790;-77.084;2024-03-02T01:47:12;102956.34;;;11.67;43.14
45441;BME280;31189;38.790;-77.084;2024-03-02T01:49:38;102949.38;;;11.86;42.88
45441;BME280;31189;38.790;-77.084;2024-03-02T01:52:04;102948.76;;;11.97;44.39
45441;BME280;31189;38.790;-77.084;2024-03-02T01:54:29;102947.80;;;11.73;44.15
45441;BME280;31189;38.790;-77.084;2024-03-02T01:56:55;102946.35;;;11.94;46.32
45441;BME280;31189;38.790;-77.084;2024-03-02T01:59:21;102947.86;;;12.43;46.78
45441;BME280;31189;38.790;-77.084;2024-03-02T02:01:46;102946.59;;;11.81;49.47
45441;BME280;31189;38.790;-77.084;2024-03-02T02:04:12;102942.41;;;11.40;50.85
45441;BME280;31189;38.790;-77.084;2024-03-02T02:06:38;102937.75;;;11.54;51.29
45441;BME280;31189;38.790;-77.084;2024-03-02T02:09:04;102932.85;;;11.95;49.52
45441;BME280;31189;38.790;-77.084;2024-03-02T02:11:29;102932.41;;;11.98;49.36
45441;BME280;31189;38.790;-77.084;2024-03-02T02:13:55;102934.15;;;12.08;52.38
45441;BME280;31189;38.790;-77.084;2024-03-02T02:16:20;102937.91;;;12.07;51.29
45441;BME280;31189;38.790;-77.084;2024-03-02T02:18:46;102933.63;;;11.76;53.10
45441;BME280;31189;38.790;-77.084;2024-03-02T02:21:12;102936.26;;;11.58;50.67
45441;BME280;31189;38.790;-77.084;2024-03-02T02:23:37;102926.12;;;11.60;51.77
45441;BME280;31189;38.790;-77.084;2024-03-02T02:26:03;102926.06;;;11.09;54.04
45441;BME280;31189;38.790;-77.084;2024-03-02T02:28:28;102921.14;;;11.54;53.40
45441;BME280;31189;38.790;-77.084;2024-03-02T02:30:55;102918.64;;;10.94;55.05
45441;BME280;31189;38.790;-77.084;2024-03-02T02:33:19;102914.47;;;10.28;56.38
45441;BME280;31189;38.790;-77.084;2024-03-02T02:35:45;102914.84;;;10.70;56.37
45441;BME280;31189;38.790;-77.084;2024-03-02T02:38:11;102914.08;;;10.65;55.46
45441;BME280;31189;38.790;-77.084;2024-03-02T02:40:37;102912.52;;;10.87;56.34
45441;BME280;31189;38.790;-77.084;2024-03-02T02:43:02;102912.89;;;10.34;58.12
45441;BME280;31189;38.790;-77.084;2024-03-02T02:45:27;102913.23;;;10.92;54.81
45441;BME280;31189;38.790;-77.084;2024-03-02T02:47:53;102913.98;;;11.10;55.71
45441;BME280;31189;38.790;-77.084;2024-03-02T02:50:19;102909.45;;;10.83;53.42
45441;BME280;31189;38.790;-77.084;2024-03-02T02:52:45;102907.27;;;10.34;54.73
45441;BME280;31189;38.790;-77.084;2024-03-02T02:55:12;102902.59;;;10.42;54.02
45441;BME280;31189;38.790;-77.084;2024-03-02T02:57:36;102901.44;;;10.14;56.59
45441;BME280;31189;38.790;-77.084;2024-03-02T03:00:02;102901.66;;;10.64;55.20
45441;BME280;31189;38.790;-77.084;2024-03-02T03:02:29;102896.50;;;10.40;55.63
45441;BME280;31189;38.790;-77.084;2024-03-02T03:04:53;102897.08;;;10.62;55.54
45441;BME280;31189;38.790;-77.084;2024-03-02T03:07:18;102895.09;;;10.20;53.79
45441;BME280;31189;38.790;-77.084;2024-03-02T03:09:44;102899.33;;;10.83;54.19
45441;BME280;31189;38.790;-77.084;2024-03-02T03:12:10;102902.81;;;10.89;54.68
45441;BME280;31189;38.790;-77.084;2024-03-02T03:14:36;102904.27;;;11.07;53.91
45441;BME280;31189;38.790;-77.084;2024-03-02T03:17:01;102907.66;;;11.05;54.08
45441;BME280;31189;38.790;-77.084;2024-03-02T03:19:27;102909.23;;;10.98;53.97
45441;BME280;31189;38.790;-77.084;2024-03-02T03:21:52;102915.31;;;10.68;55.36
45441;BME280;31189;38.790;-77.084;2024-03-02T03:24:18;102918.81;;;10.93;56.07
45441;BME280;31189;38.790;-77.084;2024-03-02T03:26:44;102923.32;;;10.18;58.13
45441;BME280;31189;38.790;-77.084;2024-03-02T03:29:10;102926.22;;;10.36;56.99
45441;BME280;31189;38.790;-77.084;2024-03-02T03:31:35;102928.78;;;10.16;57.23
45441;BME280;31189;38.790;-77.084;2024-03-02T03:34:01;102932.28;;;9.80;59.38
45441;BME280;31189;38.790;-77.084;2024-03-02T03:36:27;102934.21;;;10.34;58.97
45441;BME280;31189;38.790;-77.084;2024-03-02T03:38:52;102935.34;;;10.59;57.75
45441;BME280;31189;38.790;-77.084;2024-03-02T03:41:18;102938.32;;;10.62;58.09
45441;BME280;31189;38.790;-77.084;2024-03-02T03:43:44;102938.37;;;10.29;58.27
45441;BME280;31189;38.790;-77.084;2024-03-02T03:46:09;102937.92;;;9.95;58.95
45441;BME280;31189;38.790;-77.084;2024-03-02T03:48:35;102937.87;;;10.03;60.34
45441;BME280;31189;38.790;-77.084;2024-03-02T03:51:01;102938.97;;;10.02;61.17
45441;BME280;31189;38.790;-77.084;2024-03-02T03:53:26;102930.82;;;9.89;60.24
45441;BME280;31189;38.790;-77.084;2024-03-02T03:55:52;102925.31;;;9.59;61.25
45441;BME280;31189;38.790;-77.084;2024-03-02T03:58:18;102929.42;;;10.36;57.31
45441;BME280;31189;38.790;-77.084;2024-03-02T04:00:43;102921.98;;;10.24;56.38
45441;BME280;31189;38.790;-77.084;2024-03-02T04:03:10;102918.91;;;10.02;56.49
45441;BME280;31189;38.790;-77.084;2024-03-02T04:05:35;102915.44;;;10.42;56.42
45441;BME280;31189;38.790;-77.084;2024-03-02T04:08:00;102907.97;;;9.61;56.31
45441;BME280;31189;38.790;-77.084;2024-03-02T04:10:26;102904.03;;;10.13;57.12
45441;BME280;31189;38.790;-77.084;2024-03-02T04:12:52;102899.75;;;9.54;57.60
45441;BME280;31189;38.790;-77.084;2024-03-02T04:15:17;102902.29;;;10.00;58.03
45441;BME280;31189;38.790;-77.084;2024-03-02T04:17:43;102895.64;;;9.93;58.67
45441;BME280;31189;38.790;-77.084;2024-03-02T04:20:10;102892.47;;;9.29;60.50
45441;BME280;31189;38.790;-77.084;2024-03-02T04:22:35;102893.37;;;10.25;58.23
45441;BME280;31189;38.790;-77.084;2024-03-02T04:25:01;102891.07;;;10.64;58.25
45441;BME280;31189;38.790;-77.084;2024-03-02T04:27:26;102880.87;;;9.97;59.37
45441;BME280;31189;38.790;-77.084;2024-03-02T04:29:52;102874.89;;;10.42;58.62
45441;BME280;31189;38.790;-77.084;2024-03-02T04:32:17;102865.12;;;10.19;59.19
45441;BME280;31189;38.790;-77.084;2024-03-02T04:34:42;102857.45;;;9.11;60.39
45441;BME280;31189;38.790;-77.084;2024-03-02T04:37:08;102853.15;;;7.41;64.22
45441;BME280;31189;38.790;-77.084;2024-03-02T04:39:35;102845.80;;;9.92;59.57
45441;BME280;31189;38.790;-77.084;2024-03-02T04:41:59;102840.26;;;8.72;59.28
45441;BME280;31189;38.790;-77.084;2024-03-02T04:44:25;102834.96;;;10.10;56.51
45441;BME280;31189;38.790;-77.084;2024-03-02T04:46:50;102834.76;;;9.39;58.29
45441;BME280;31189;38.790;-77.084;2024-03-02T04:49:16;102829.92;;;9.79;56.24
45441;BME280;31189;38.790;-77.084;2024-03-02T04:51:42;102827.21;;;9.28;59.25
45441;BME280;31189;38.790;-77.084;2024-03-02T04:54:07;102826.53;;;9.79;57.18
45441;BME280;31189;38.790;-77.084;2024-03-02T04:56:33;102832.75;;;9.26;60.19
45441;BME280;31189;38.790;-77.084;2024-03-02T04:58:59;102826.91;;;9.31;57.00
45441;BME280;31189;38.790;-77.084;2024-03-02T05:01:24;102822.62;;;9.34;55.93
45441;BME280;31189;38.790;-77.084;2024-03-02T05:03:50;102820.27;;;9.77;57.00
45441;BME280;31189;38.790;-77.084;2024-03-02T05:06:15;102813.59;;;9.77;56.99
45441;BME280;31189;38.790;-77.084;2024-03-02T05:08:41;102818.71;;;10.01;58.89
45441;BME280;31189;38.790;-77.084;2024-03-02T05:11:06;102816.58;;;10.06;56.02
45441;BME280;31189;38.790;-77.084;2024-03-02T05:13:32;102818.76;;;9.84;57.61
45441;BME280;31189;38.790;-77.084;2024-03-02T05:15:58;102814.90;;;10.22;55.32
45441;BME280;31189;38.790;-77.084;2024-03-02T05:18:24;102809.81;;;9.67;55.85
45441;BME280;31189;38.790;-77.084;2024-03-02T05:20:49;102804.78;;;10.24;56.93
45441;BME280;31189;38.790;-77.084;2024-03-02T05:23:15;102800.85;;;9.75;57.83
45441;BME280;31189;38.790;-77.084;2024-03-02T05:25:41;102795.31;;;9.97;57.23
45441;BME280;31189;38.790;-77.084;2024-03-02T05:28:06;102787.44;;;9.85;56.95
45441;BME280;31189;38.790;-77.084;2024-03-02T05:30:32;102785.03;;;9.83;58.36
45441;BME280;31189;38.790;-77.084;2024-03-02T05:32:58;102790.30;;;9.17;60.77
45441;BME280;31189;38.790;-77.084;2024-03-02T05:35:23;102785.69;;;9.81;58.01
45441;BME280;31189;38.790;-77.084;2024-03-02T05:37:49;102770.82;;;9.58;59.42
45441;BME280;31189;38.790;-77.084;2024-03-02T05:40:15;102773.64;;;9.53;59.24
45441;BME280;31189;38.790;-77.084;2024-03-02T05:42:40;102767.51;;;9.11;61.91
45441;BME280;31189;38.790;-77.084;2024-03-02T05:45:06;102779.22;;;7.63;66.63
45441;BME280;31189;38.790;-77.084;2024-03-02T05:47:31;102769.08;;;9.64;59.84
45441;BME280;31189;38.790;-77.084;2024-03-02T05:49:57;102765.67;;;10.04;59.88
45441;BME280;31189;38.790;-77.084;2024-03-02T05:52:22;102760.51;;;8.37;64.33
45441;BME280;31189;38.790;-77.084;2024-03-02T05:54:48;102764.85;;;9.15;62.92
45441;BME280;31189;38.790;-77.084;2024-03-02T05:57:14;102775.41;;;8.92;61.39
45441;BME280;31189;38.790;-77.084;2024-03-02T05:59:39;102769.84;;;8.83;60.69
45441;BME280;31189;38.790;-77.084;2024-03-02T06:02:05;102770.75;;;9.18;59.98
45441;BME280;31189;38.790;-77.084;2024-03-02T06:04:31;102766.25;;;9.30;61.83
45441;BME280;31189;38.790;-77.084;2024-03-02T06:06:56;102763.15;;;9.51;59.91
45441;BME280;31189;38.790;-77.084;2024-03-02T06:09:22;102763.14;;;9.41;61.26
45441;BME280;31189;38.790;-77.084;2024-03-02T06:11:48;102760.69;;;9.03;63.12
45441;BME280;31189;38.790;-77.084;2024-03-02T06:14:14;102759.88;;;8.02;63.37
45441;BME280;31189;38.790;-77.084;2024-03-02T06:16:39;102758.16;;;9.28;61.04
45441;BME280;31189;38.790;-77.084;2024-03-02T06:19:05;102759.18;;;9.39;62.89
45441;BME280;31189;38.790;-77.084;2024-03-02T06:21:30;102752.09;;;8.66;63.59
45441;BME280;31189;38.790;-77.084;2024-03-02T06:23:56;102748.76;;;9.53;61.61
45441;BME280;31189;38.790;-77.084;2024-03-02T06:26:22;102740.29;;;8.80;65.04
45441;BME280;31189;38.790;-77.084;2024-03-02T06:28:48;102734.40;;;9.12;63.16
45441;BME280;31189;38.790;-77.084;2024-03-02T06:31:13;102728.30;;;8.05;64.82
45441;BME280;31189;38.790;-77.084;2024-03-02T06:33:39;102720.05;;;9.49;60.74
45441;BME280;31189;38.790;-77.084;2024-03-02T06:36:05;102716.36;;;8.86;64.12
45441;BME280;31189;38.790;-77.084;2024-03-02T06:38:30;102713.05;;;8.32;62.67
45441;BME280;31189;38.790;-77.084;2024-03-02T06:40:56;102708.46;;;9.20;61.02
45441;BME280;31189;38.790;-77.084;2024-03-02T06:43:21;102703.94;;;9.62;61.62
45441;BME280;31189;38.790;-77.084;2024-03-02T06:45:47;102691.20;;;9.93;60.10
45441;BME280;31189;38.790;-77.084;2024-03-02T06:48:13;102688.11;;;9.33;62.29
45441;BME280;31189;38.790;-77.084;2024-03-02T06:50:39;102685.47;;;9.48;61.66
45441;BME280;31189;38.790;-77.084;2024-03-02T06:53:04;102685.50;;;9.28;62.04
45441;BME280;31189;38.790;-77.084;2024-03-02T06:55:30;102675.84;;;8.84;64.55
45441;BME280;31189;38.790;-77.084;2024-03-02T06:57:56;102669.32;;;8.90;63.09
45441;BME280;31189;38.790;-77.084;2024-03-02T07:00:21;102660.41;;;8.70;63.30
45441;BME280;31189;38.790;-77.084;2024-03-02T07:02:47;102652.99;;;8.60;64.59
45441;BME280;31189;38.790;-77.084;2024-03-02T07:05:13;102648.38;;;9.21;61.88
45441;BME280;31189;38.790;-77.084;2024-03-02T07:07:38;102640.09;;;9.18;62.43
45441;BME280;31189;38.790;-77.084;2024-03-02T07:10:05;102633.70;;;9.00;61.35
45441;BME280;31189;38.790;-77.084;2024-03-02T07:12:30;102623.73;;;8.09;64.78
45441;BME280;31189;38.790;-77.084;2024-03-02T07:14:56;102617.34;;;8.25;65.35
45441;BME280;31189;38.790;-77.084;2024-03-02T07:17:21;102602.58;;;8.01;65.24
45441;BME280;31189;38.790;-77.084;2024-03-02T07:19:47;102594.36;;;8.45;63.63
45441;BME280;31189;38.790;-77.084;2024-03-02T07:22:12;102590.10;;;9.32;62.29
45441;BME280;31189;38.790;-77.084;2024-03-02T07:24:40;102580.16;;;8.92;62.28
45441;BME280;31189;38.790;-77.084;2024-03-02T07:27:04;102577.35;;;9.10;61.94
45441;BME280;31189;38.790;-77.084;2024-03-02T07:29:29;102570.28;;;8.40;64.21
45441;BME280;31189;38.790;-77.084;2024-03-02T07:31:55;102564.67;;;8.37;64.19
45441;BME280;31189;38.790;-77.084;2024-03-02T07:34:21;102561.32;;;9.03;61.21
45441;BME280;31189;38.790;-77.084;2024-03-02T07:36:47;102556.67;;;8.95;61.76
45441;BME280;31189;38.790;-77.084;2024-03-02T07:39:12;102554.60;;;9.25;60.26
45441;BME280;31189;38.790;-77.084;2024-03-02T07:41:38;102547.02;;;8.78;61.21
45441;BME280;31189;38.790;-77.084;2024-03-02T07:44:04;102544.61;;;8.65;63.31
45441;BME280;31189;38.790;-77.084;2024-03-02T07:46:29;102536.52;;;9.18;60.67
45441;BME280;31189;38.790;-77.084;2024-03-02T07:48:55;102533.10;;;8.69;63.21
45441;BME280;31189;38.790;-77.084;2024-03-02T07:51:21;102526.09;;;8.71;64.05
45441;BME280;31189;38.790;-77.084;2024-03-02T07:53:46;102526.66;;;9.24;62.89
45441;BME280;31189;38.790;-77.084;2024-03-02T07:56:12;102524.12;;;9.44;60.99
45441;BME280;31189;38.790;-77.084;2024-03-02T07:58:38;102522.05;;;9.71;59.44
45441;BME280;31189;38.790;-77.084;2024-03-02T08:01:04;102515.79;;;9.10;62.52
45441;BME280;31189;38.790;-77.084;2024-03-02T08:03:29;102521.74;;;8.69;62.78
45441;BME280;31189;38.790;-77.084;2024-03-02T08:05:55;102513.03;;;9.54;60.53
45441;BME280;31189;38.790;-77.084;2024-03-02T08:08:20;102511.63;;;9.57;60.40
45441;BME280;31189;38.790;-77.084;2024-03-02T08:10:46;102514.90;;;8.43;65.19
45441;BME280;31189;38.790;-77.084;2024-03-02T08:13:11;102510.00;;;8.21;64.81
45441;BME280;31189;38.790;-77.084;2024-03-02T08:15:37;102509.17;;;9.09;64.05
45441;BME280;31189;38.790;-77.084;2024-03-02T08:18:03;102509.92;;;8.82;63.36
45441;BME280;31189;38.790;-77.084;2024-03-02T08:20:28;102506.26;;;8.91;63.42
45441;BME280;31189;38.790;-77.084;2024-03-02T08:22:54;102501.38;;;9.19;63.20
45441;BME280;31189;38.790;-77.084;2024-03-02T08:25:19;102499.24;;;9.56;63.94
45441;BME280;31189;38.790;-77.084;2024-03-02T08:27:45;102496.61;;;9.23;62.74
45441;BME280;31189;38.790;-77.084;2024-03-02T08:30:12;102479.90;;;9.97;61.22
45441;BME280;31189;38.790;-77.084;2024-03-02T08:32:36;102480.54;;;9.44;61.70
45441;BME280;31189;38.790;-77.084;2024-03-02T08:35:02;102473.80;;;9.82;60.98
45441;BME280;31189;38.790;-77.084;2024-03-02T08:37:27;102469.49;;;9.79;61.00
45441;BME280;31189;38.790;-77.084;2024-03-02T08:39:53;102468.27;;;9.51;61.75
45441;BME280;31189;38.790;-77.084;2024-03-02T08:42:19;102462.55;;;9.80;61.95
45441;BME280;31189;38.790;-77.084;2024-03-02T08:44:45;102460.74;;;10.12;60.33
45441;BME280;31189;38.790;-77.084;2024-03-02T08:47:10;102455.83;;;10.42;60.87
45441;BME280;31189;38.790;-77.084;2024-03-02T08:49:35;102452.56;;;10.46;60.45
45441;BME280;31189;38.790;-77.084;2024-03-02T08:52:01;102447.18;;;10.04;60.68
45441;BME280;31189;38.790;-77.084;2024-03-02T08:54:27;102437.25;;;10.33;60.46
45441;BME280;31189;38.790;-77.084;2024-03-02T08:56:52;102428.99;;;10.31;59.80
45441;BME280;31189;38.790;-77.084;2024-03-02T08:59:18;102423.54;;;9.62;60.43
45441;BME280;31189;38.790;-77.084;2024-03-02T09:01:43;102415.44;;;9.25;63.49
45441;BME280;31189;38.790;-77.084;2024-03-02T09:04:09;102410.48;;;9.37;63.84
45441;BME280;31189;38.790;-77.084;2024-03-02T09:06:35;102402.71;;;10.19;61.60
45441;BME280;31189;38.790;-77.084;2024-03-02T09:09:00;102399.19;;;9.61;61.74
45441;BME280;31189;38.790;-77.084;2024-03-02T09:11:26;102389.72;;;9.21;64.14
45441;BME280;31189;38.790;-77.084;2024-03-02T09:13:52;102387.72;;;9.74;63.65
45441;BME280;31189;38.790;-77.084;2024-03-02T09:16:17;102386.28;;;9.21;62.70
45441;BME280;31189;38.790;-77.084;2024-03-02T09:18:43;102382.41;;;9.34;62.85
45441;BME280;31189;38.790;-77.084;2024-03-02T09:21:09;102376.61;;;9.95;61.64
45441;BME280;31189;38.790;-77.084;2024-03-02T09:23:34;102376.23;;;9.32;62.86
45441;BME280;31189;38.790;-77.084;2024-03-02T09:26:00;102369.06;;;10.05;61.73
45441;BME280;31189;38.790;-77.084;2024-03-02T09:28:26;102367.17;;;9.83;62.29
45441;BME280;31189;38.790;-77.084;2024-03-02T09:30:51;102360.66;;;10.14;61.43
45441;BME280;31189;38.790;-77.084;2024-03-02T09:33:17;102353.44;;;10.05;61.58
45441;BME280;31189;38.790;-77.084;2024-03-02T09:35:43;102349.72;;;10.06;60.78
45441;BME280;31189;38.790;-77.084;2024-03-02T09:38:08;102347.51;;;9.81;60.42
45441;BME280;31189;38.790;-77.084;2024-03-02T09:40:34;102343.76;;;10.07;61.63
45441;BME280;31189;38.790;-77.084;2024-03-02T09:43:00;102331.82;;;10.21;60.45
45441;BME280;31189;38.790;-77.084;2024-03-02T09:45:27;102322.80;;;10.40;60.63
45441;BME280;31189;38.790;-77.084;2024-03-02T09:47:51;102320.42;;;9.79;61.52
45441;BME280;31189;38.790;-77.084;2024-03-02T09:50:17;102317.09;;;9.72;62.70
45441;BME280;31189;38.790;-77.084;2024-03-02T09:52:43;102315.72;;;9.53;63.80
45441;BME280;31189;38.790;-77.084;2024-03-02T09:55:08;102314.54;;;9.61;64.01
45441;BME280;31189;38.790;-77.084;2024-03-02T09:57:34;102310.64;;;9.62;64.00
45441;BME280;31189;38.790;-77.084;2024-03-02T09:59:59;102308.91;;;9.45;64.48
45441;BME280;31189;38.790;-77.084;2024-03-02T10:02:25;102302.51;;;9.67;65.10
45441;BME280;31189;38.790;-77.084;2024-03-02T10:04:51;102304.32;;;9.35;66.23
45441;BME280;31189;38.790;-77.084;2024-03-02T10:07:17;102300.60;;;9.86;64.80
45441;BME280;31189;38.790;-77.084;2024-03-02T10:09:43;102285.80;;;9.93;64.40
45441;BME280;31189;38.790;-77.084;2024-03-02T10:12:09;102284.39;;;9.17;65.35
45441;BME280;31189;38.790;-77.084;2024-03-02T10:14:33;102271.21;;;9.07;66.16
45441;BME280;31189;38.790;-77.084;2024-03-02T10:17:03;102268.29;;;8.71;67.09
45441;BME280;31189;38.790;-77.084;2024-03-02T10:19:24;102264.13;;;8.97;66.88
45441;BME280;31189;38.790;-77.084;2024-03-02T10:21:50;102265.47;;;9.03;65.81
45441;BME280;31189;38.790;-77.084;2024-03-02T10:24:15;102264.84;;;8.42;67.44
45441;BME280;31189;38.790;-77.084;2024-03-02T10:26:41;102258.75;;;8.35;67.90
45441;BME280;31189;38.790;-77.084;2024-03-02T10:29:07;102251.71;;;9.05;66.11
45441;BME280;31189;38.790;-77.084;2024-03-02T10:31:32;102252.70;;;7.54;71.95
45441;BME280;31189;38.790;-77.084;2024-03-02T10:33:58;102240.74;;;8.63;69.39
45441;BME280;31189;38.790;-77.084;2024-03-02T10:36:23;102238.30;;;8.44;68.37
45441;BME280;31189;38.790;-77.084;2024-03-02T10:38:48;102232.35;;;8.49;69.57
45441;BME280;31189;38.790;-77.084;2024-03-02T10:41:17;102227.12;;;8.44;69.86
45441;BME280;31189;38.790;-77.084;2024-03-02T10:43:39;102237.33;;;8.69;67.42
45441;BME280;31189;38.790;-77.084;2024-03-02T10:46:04;102241.37;;;9.68;65.74
45441;BME280;31189;38.790;-77.084;2024-03-02T10:48:31;102243.70;;;8.39;68.00
45441;BME280;31189;38.790;-77.084;2024-03-02T10:50:56;102244.09;;;9.03;66.40
45441;BME280;31189;38.790;-77.084;2024-03-02T10:53:21;102230.40;;;9.34;65.26
45441;BME280;31189;38.790;-77.084;2024-03-02T10:55:51;102224.21;;;9.54;63.94
45441;BME280;31189;38.790;-77.084;2024-03-02T10:58:12;102219.84;;;9.92;63.18
45441;BME280;31189;38.790;-77.084;2024-03-02T11:00:39;102217.21;;;9.35;63.65
45441;BME280;31189;38.790;-77.084;2024-03-02T11:03:05;102208.03;;;9.30;64.81
45441;BME280;31189;38.790;-77.084;2024-03-02T11:05:33;102201.93;;;9.79;62.90
45441;BME280;31189;38.790;-77.084;2024-03-02T11:08:00;102197.77;;;9.73;62.32
45441;BME280;31189;38.790;-77.084;2024-03-02T11:10:20;102193.80;;;9.79;62.74
45441;BME280;31189;38.790;-77.084;2024-03-02T11:12:51;102196.22;;;9.39;63.78
45441;BME280;31189;38.790;-77.084;2024-03-02T11:15:17;102195.28;;;8.95;66.18
45441;BME280;31189;38.790;-77.084;2024-03-02T11:17:38;102192.67;;;9.78;64.50
45441;BME280;31189;38.790;-77.084;2024-03-02T11:20:04;102182.80;;;10.04;63.55
45441;BME280;31189;38.790;-77.084;2024-03-02T11:22:29;102183.69;;;9.40;64.21
45441;BME280;31189;38.790;-77.084;2024-03-02T11:24:54;102186.39;;;8.91;66.84
45441;BME280;31189;38.790;-77.084;2024-03-02T11:29:46;102181.31;;;8.62;68.90
45441;BME280;31189;38.790;-77.084;2024-03-02T11:32:16;102174.20;;;9.50;66.86
45441;BME280;31189;38.790;-77.084;2024-03-02T11:34:37;102173.12;;;8.88;67.81
45441;BME280;31189;38.790;-77.084;2024-03-02T11:37:03;102175.61;;;8.74;69.02
45441;BME280;31189;38.790;-77.084;2024-03-02T11:39:28;102175.64;;;9.67;65.60
45441;BME280;31189;38.790;-77.084;2024-03-02T11:41:53;102173.63;;;9.77;65.55
45441;BME280;31189;38.790;-77.084;2024-03-02T11:44:19;102171.25;;;9.62;66.06
45441;BME280;31189;38.790;-77.084;2024-03-02T11:46:45;102165.14;;;9.87;65.96
45441;BME280;31189;38.790;-77.084;2024-03-02T11:49:10;102158.96;;;9.90;64.84
45441;BME280;31189;38.790;-77.084;2024-03-02T11:51:36;102160.84;;;9.60;64.11
45441;BME280;31189;38.790;-77.084;2024-03-02T11:54:03;102168.18;;;10.13;63.00
45441;BME280;31189;38.790;-77.084;2024-03-02T11:56:27;102170.78;;;9.88;64.35
45441;BME280;31189;38.790;-77.084;2024-03-02T11:58:54;102168.61;;;10.23;63.98
45441;BME280;31189;38.790;-77.084;2024-03-02T12:01:19;102164.87;;;10.45;63.68
45441;BME280;31189;38.790;-77.084;2024-03-02T12:03:43;102158.84;;;10.05;64.91
45441;BME280;31189;38.790;-77.084;2024-03-02T12:06:09;102156.77;;;10.02;65.11
45441;BME280;31189;38.790;-77.084;2024-03-02T12:08:35;102144.69;;;9.70;65.02
45441;BME280;31189;38.790;-77.084;2024-03-02T12:11:01;102136.15;;;10.53;64.73
45441;BME280;31189;38.790;-77.084;2024-03-02T12:13:26;102125.69;;;10.06;66.08
45441;BME280;31189;38.790;-77.084;2024-03-02T12:15:54;102115.56;;;9.25;70.01
45441;BME280;31189;38.790;-77.084;2024-03-02T12:18:17;102107.65;;;8.56;71.65
45441;BME280;31189;38.790;-77.084;2024-03-02T12:20:43;102110.63;;;9.23;70.83
45441;BME280;31189;38.790;-77.084;2024-03-02T12:23:08;102115.91;;;9.96;68.49
45441;BME280;31189;38.790;-77.084;2024-03-02T12:25:34;102119.71;;;9.66;69.44
45441;BME280;31189;38.790;-77.084;2024-03-02T12:28:00;102121.97;;;9.73;68.64